Grantfork, Illinois
Current Conditions -  °F | °C
As of 1:58 PM on Wednesday 17 Dec 2014 (Local Time) from KBLV Reporting Station
Clear Clear  
Wind Chill: 40°   Ceiling: Unl
Heat Index: 40°   Visibility: 10mi
Dew Point: 25°   Wind: 2mph
Humidity: 54%   Direction: NA
Pressure: 30.26"   Gusts: NA
Location:  38.8004°N, 89.6795°W
Report Text: KBLV 171958Z AUTO VRB02KT 10SM CLR 05/M04 A3026 RMK AO2 SLP254 T00471038
Loading
Personal Weather Stations






























Interactive Weather Map New forecast layout! Learn more

10-Day Weather Forecast

Advertisements
Track Severe Weather on mobile